Time;durP1;ratioP1;P1;durP2;ratioP2;P2;SDS_P1;SDS_P2;PMS_P1;PMS_P2;Temp;Humidity;BMP_temperature;BMP_pressure;BME280_temperature;BME280_humidity;BME280_pressure;Samples;Min_cycle;Max_cycle;Signal;HPM_P1;HPM_P2
2022/12/17 13:06:48;;;;;;;29.07;15.23;;;;;;;18.39;36.61;101276.91;5037959;28;20468;-66
2022/12/17 13:09:13;;;;;;;27.80;14.43;;;;;;;18.34;37.32;101264.84;5052255;28;20461;-65
2022/12/17 13:11:39;;;;;;;29.90;14.83;;;;;;;18.30;37.03;101276.13;5052639;28;20411;-66
2022/12/17 13:14:09;;;;;;;25.83;13.63;;;;;;;18.21;37.65;101275.41;5036813;28;20266;-65
2022/12/17 13:16:47;;;;;;;33.37;15.50;;;;;;;18.21;37.89;101277.44;5021141;28;20267;-66
2022/12/17 13:19:36;;;;;;;30.23;14.33;;;;;;;18.49;38.85;101281.28;5051755;28;20577;-66
2022/12/17 13:22:25;;;;;;;27.83;13.90;;;;;;;18.84;39.28;101277.59;5045259;28;20458;-66
2022/12/17 13:25:10;;;;;;;28.60;14.67;;;;;;;18.96;38.67;101291.88;5050694;28;21004;-66
2022/12/17 13:27:37;;;;;;;29.27;14.47;;;;;;;18.78;38.91;101287.63;5057485;28;20442;-65
2022/12/17 13:30:20;;;;;;;27.67;12.53;;;;;;;18.64;39.44;101287.16;5050663;28;20410;-67
2022/12/17 13:33:13;;;;;;;28.03;14.20;;;;;;;18.40;40.45;101272.84;5051092;28;20481;-66
2022/12/17 13:35:40;;;;;;;20.53;13.47;;;;;;;18.29;40.74;101276.47;5055085;28;20430;-65
2022/12/17 13:38:21;;;;;;;25.00;13.43;;;;;;;18.23;40.33;101278.75;5034793;28;20527;-66
2022/12/17 13:41:06;;;;;;;26.33;12.90;;;;;;;18.23;40.42;101275.91;5049622;28;20429;-66
2022/12/17 13:43:33;;;;;;;23.13;12.77;;;;;;;18.21;40.36;101280.31;5031823;28;20789;-65
2022/12/17 13:45:59;;;;;;;30.23;13.37;;;;;;;18.14;40.32;101280.88;5013178;28;20423;-65
2022/12/17 13:48:26;;;;;;;19.90;11.33;;;;;;;18.16;40.52;101278.50;5042526;28;20449;-65
2022/12/17 13:53:23;;;;;;;20.63;11.83;;;;;;;18.19;39.52;101276.94;5042742;28;20486;-65
2022/12/17 13:55:50;;;;;;;20.97;11.40;;;;;;;18.22;40.49;101279.09;5044888;28;20453;-66
2022/12/17 13:58:20;;;;;;;20.10;12.10;;;;;;;18.22;40.60;101288.50;5035161;28;20556;-66
2022/12/17 14:00:46;;;;;;;24.87;11.43;;;;;;;18.24;40.27;101288.16;5043449;28;20892;-65
2022/12/17 14:03:11;;;;;;;24.20;11.90;;;;;;;18.23;40.75;101283.63;5043791;28;20434;-67
2022/12/17 14:05:41;;;;;;;23.10;13.13;;;;;;;18.21;40.30;101286.84;5052246;28;20187;-66
2022/12/17 14:08:06;;;;;;;28.77;11.40;;;;;;;18.31;40.23;101286.38;5026051;28;20867;-66
2022/12/17 14:10:32;;;;;;;25.80;12.77;;;;;;;18.31;40.66;101291.28;5050447;28;20433;-67
2022/12/17 14:13:06;;;;;;;22.30;11.40;;;;;;;18.37;40.85;101290.69;5047794;28;20253;-67
2022/12/17 14:15:32;;;;;;;29.43;12.13;;;;;;;18.46;40.76;101279.97;5050585;28;20203;-67
2022/12/17 14:17:58;;;;;;;19.57;11.10;;;;;;;18.38;40.41;101285.81;5049129;28;20454;-68
2022/12/17 14:20:31;;;;;;;23.57;12.00;;;;;;;18.37;40.30;101290.69;5054335;28;20182;-68
2022/12/17 14:23:04;;;;;;;25.40;12.47;;;;;;;18.32;40.49;101298.66;5039802;28;20183;-68
2022/12/17 14:25:35;;;;;;;18.40;10.40;;;;;;;18.36;40.43;101305.38;5054721;28;21292;-67
2022/12/17 14:28:03;;;;;;;20.53;10.40;;;;;;;18.35;40.76;101309.38;5030716;28;20445;-67
2022/12/17 14:30:34;;;;;;;22.00;11.77;;;;;;;18.27;40.46;101308.28;5052178;28;20532;-67
2022/12/17 14:33:00;;;;;;;19.80;10.83;;;;;;;18.15;40.14;101311.13;5045734;28;20471;-67
2022/12/17 14:35:43;;;;;;;19.73;11.33;;;;;;;18.08;40.52;101307.19;5058594;28;20434;-67
2022/12/17 14:38:19;;;;;;;21.07;11.17;;;;;;;18.03;40.41;101296.81;5027878;28;20207;-67
2022/12/17 14:40:45;;;;;;;25.53;11.10;;;;;;;18.05;40.51;101300.16;5058732;28;20983;-67
2022/12/17 14:43:10;;;;;;;21.07;11.30;;;;;;;18.02;40.36;101305.75;5041972;28;20463;-68
2022/12/17 14:46:19;;;;;;;22.17;11.73;;;;;;;18.00;40.39;101308.94;5024572;28;20748;-67
2022/12/17 14:48:59;;;;;;;23.17;11.77;;;;;;;17.99;40.80;101301.56;5058998;28;20190;-67
2022/12/17 14:51:22;;;;;;;21.93;10.47;;;;;;;18.26;40.64;101306.59;5047433;28;20434;-68
2022/12/17 14:53:47;;;;;;;16.87;11.00;;;;;;;18.23;40.39;101310.19;5019305;28;20438;-67
2022/12/17 14:56:21;;;;;;;19.17;11.00;;;;;;;18.14;40.92;101300.03;5059096;28;20425;-66
2022/12/17 14:58:47;;;;;;;18.03;10.43;;;;;;;18.02;40.41;101294.31;5052491;28;20190;-67
2022/12/17 15:01:12;;;;;;;22.50;10.87;;;;;;;18.01;40.36;101290.59;5062687;28;20444;-66
2022/12/17 15:03:39;;;;;;;19.47;10.30;;;;;;;18.00;40.38;101290.94;5059772;28;20253;-67
2022/12/17 15:06:06;;;;;;;14.30;9.53;;;;;;;18.08;40.42;101292.88;5070434;28;20182;-67
2022/12/17 15:08:33;;;;;;;19.33;10.30;;;;;;;18.11;40.80;101304.44;5059046;28;20428;-67
2022/12/17 15:10:58;;;;;;;14.23;9.00;;;;;;;18.11;40.91;101310.16;5035163;28;20420;-67
2022/12/17 15:13:24;;;;;;;17.47;9.70;;;;;;;18.16;41.32;101309.94;5046467;28;20430;-67
2022/12/17 15:15:49;;;;;;;19.60;9.80;;;;;;;18.12;41.00;101317.53;5071590;28;20209;-67
2022/12/17 15:18:15;;;;;;;24.90;9.40;;;;;;;18.12;40.78;101317.53;5038407;28;20257;-67
2022/12/17 15:20:40;;;;;;;23.00;10.70;;;;;;;18.08;40.83;101318.59;5040418;28;20202;-67
2022/12/17 15:23:12;;;;;;;29.83;12.30;;;;;;;18.08;40.23;101316.59;5042718;28;21093;-66
2022/12/17 15:25:37;;;;;;;18.60;11.80;;;;;;;18.03;40.11;101325.41;5064594;28;20644;-67
2022/12/17 15:28:03;;;;;;;25.67;12.50;;;;;;;17.97;40.40;101332.50;5064378;28;20431;-66
2022/12/17 15:30:28;;;;;;;28.50;13.87;;;;;;;17.99;40.16;101327.28;5088810;28;20171;-67
2022/12/17 15:32:54;;;;;;;26.27;14.63;;;;;;;17.92;40.29;101332.75;5065350;28;20195;-66
2022/12/17 15:35:19;;;;;;;29.70;14.80;;;;;;;18.04;40.05;101320.50;5071464;28;20191;-65
2022/12/17 15:37:44;;;;;;;28.60;14.17;;;;;;;17.95;40.15;101328.31;5064991;28;20722;-65
2022/12/17 15:40:10;;;;;;;28.27;14.53;;;;;;;18.01;40.55;101322.03;5067304;28;20719;-65
2022/12/17 15:45:20;;;;;;;37.90;16.43;;;;;;;18.04;40.41;101343.34;5058626;28;20202;-66
2022/12/17 15:47:46;;;;;;;34.20;18.10;;;;;;;17.97;39.99;101349.63;5061171;28;20429;-66
2022/12/17 15:50:11;;;;;;;47.70;22.97;;;;;;;17.86;39.55;101348.41;5051278;28;20543;-66
2022/12/17 15:52:36;;;;;;;52.27;23.07;;;;;;;17.76;39.14;101351.69;5075392;28;20716;-66
2022/12/17 15:55:02;;;;;;;52.03;22.37;;;;;;;17.73;39.01;101349.56;5070259;28;20764;-66
2022/12/17 15:57:28;;;;;;;57.33;23.57;;;;;;;17.77;39.00;101356.25;5073585;28;20179;-66
2022/12/17 15:59:53;;;;;;;53.00;24.27;;;;;;;17.80;39.22;101349.81;5065850;28;20694;-66
2022/12/17 16:02:18;;;;;;;43.97;21.40;;;;;;;17.84;38.76;101350.78;5055513;28;20183;-66
2022/12/17 16:04:44;;;;;;;57.50;23.23;;;;;;;17.91;38.87;101351.03;5067548;28;20632;-66
2022/12/17 16:07:09;;;;;;;58.53;22.77;;;;;;;17.97;38.46;101343.91;5052327;28;20176;-65
2022/12/17 16:09:35;;;;;;;55.43;24.23;;;;;;;17.96;38.25;101347.16;5084549;28;20182;-66
2022/12/17 16:12:00;;;;;;;45.00;22.73;;;;;;;18.07;38.42;101351.22;5057135;28;20179;-65
2022/12/17 16:14:26;;;;;;;45.00;23.10;;;;;;;18.13;38.00;101350.66;5056786;28;20179;-66
2022/12/17 16:16:51;;;;;;;44.43;22.27;;;;;;;18.20;37.70;101348.06;5059473;28;20199;-66
2022/12/17 16:19:16;;;;;;;44.20;22.57;;;;;;;18.26;37.87;101346.63;5040259;28;20712;-65
2022/12/17 16:21:42;;;;;;;40.10;21.30;;;;;;;18.31;38.98;101349.25;5053364;28;20212;-66
2022/12/17 16:24:09;;;;;;;37.03;21.23;;;;;;;18.32;39.03;101352.97;5018242;28;20180;-65
2022/12/17 16:26:35;;;;;;;45.77;21.70;;;;;;;18.27;39.14;101348.28;5053279;28;20188;-65
2022/12/17 16:29:00;;;;;;;38.40;21.07;;;;;;;18.21;39.63;101341.13;5065964;28;20483;-65
2022/12/17 16:31:26;;;;;;;40.03;20.67;;;;;;;18.23;39.23;101347.34;5083281;28;20219;-65
2022/12/17 16:33:51;;;;;;;41.50;20.43;;;;;;;18.21;39.20;101349.72;5079087;28;20171;-66
2022/12/17 16:36:17;;;;;;;41.37;20.00;;;;;;;18.22;39.58;101345.66;5072014;28;20159;-66
2022/12/17 16:38:50;;;;;;;36.60;20.20;;;;;;;18.23;39.43;101350.22;5067161;28;20206;-66
2022/12/17 16:41:16;;;;;;;37.13;21.17;;;;;;;18.14;39.82;101352.31;5071903;28;20406;-65
2022/12/17 16:43:41;;;;;;;37.87;20.13;;;;;;;18.16;39.75;101355.66;5051843;28;20440;-65
2022/12/17 16:46:22;;;;;;;34.70;19.10;;;;;;;18.05;39.83;101357.28;5072570;28;20164;-66
2022/12/17 16:48:48;;;;;;;38.83;21.63;;;;;;;18.05;38.82;101345.88;5081949;28;20179;-65
2022/12/17 16:51:15;;;;;;;34.37;18.13;;;;;;;18.06;39.37;101353.25;5068285;28;20449;-66
2022/12/17 16:53:40;;;;;;;34.30;19.67;;;;;;;18.22;39.88;101342.81;5070424;28;20187;-66
2022/12/17 16:56:06;;;;;;;36.10;21.33;;;;;;;18.45;40.60;101343.25;5063690;28;20433;-66
2022/12/17 16:58:31;;;;;;;35.50;20.70;;;;;;;18.37;41.74;101339.28;5052352;28;20243;-66
2022/12/17 17:00:57;;;;;;;40.37;20.57;;;;;;;18.20;40.42;101336.63;5093126;28;20583;-66
2022/12/17 17:03:22;;;;;;;34.60;21.07;;;;;;;17.98;39.93;101342.75;5062331;28;20623;-65
2022/12/17 17:05:48;;;;;;;34.93;21.10;;;;;;;17.92;38.37;101347.03;5063335;28;20653;-66
2022/12/17 17:08:13;;;;;;;40.73;21.30;;;;;;;17.86;38.03;101347.59;5067674;28;20183;-66
2022/12/17 17:10:39;;;;;;;35.27;20.37;;;;;;;17.90;38.98;101345.72;5054759;28;20179;-66
2022/12/17 17:13:04;;;;;;;32.60;19.63;;;;;;;17.97;38.99;101355.34;5052147;28;20186;-66
2022/12/17 17:15:29;;;;;;;33.07;19.90;;;;;;;17.98;39.07;101347.63;5061515;28;20183;-66
2022/12/17 17:17:55;;;;;;;36.20;18.87;;;;;;;18.08;39.15;101347.19;5019924;28;20701;-66
2022/12/17 17:20:20;;;;;;;28.77;18.00;;;;;;;18.11;39.12;101358.72;5054109;28;20187;-66
2022/12/17 17:22:46;;;;;;;33.43;18.23;;;;;;;18.18;39.21;101353.31;5068119;28;20183;-66
2022/12/17 17:25:11;;;;;;;35.57;17.23;;;;;;;18.35;41.53;101352.28;5079099;28;20178;-65
2022/12/17 17:27:37;;;;;;;32.57;18.57;;;;;;;18.30;43.08;101352.47;5057299;28;20167;-66
2022/12/17 17:30:03;;;;;;;38.63;18.27;;;;;;;18.08;42.90;101353.75;5038095;28;20176;-65
2022/12/17 17:32:28;;;;;;;35.23;20.00;;;;;;;18.02;41.32;101352.28;5058351;28;20711;-66
2022/12/17 17:34:54;;;;;;;52.30;20.53;;;;;;;18.04;42.06;101361.34;5077887;28;20822;-66
2022/12/17 17:37:19;;;;;;;49.37;19.17;;;;;;;18.11;41.93;101355.88;5063856;28;20183;-65
2022/12/17 17:39:45;;;;;;;33.50;18.07;;;;;;;18.21;41.90;101346.84;5040384;28;20210;-65
2022/12/17 17:42:10;;;;;;;38.27;17.13;;;;;;;18.14;42.12;101343.75;5058452;28;20202;-65
2022/12/17 17:44:37;;;;;;;40.63;17.80;;;;;;;18.20;42.41;101350.06;5040649;28;20234;-65
2022/12/17 17:47:02;;;;;;;36.90;15.80;;;;;;;18.21;41.58;101355.44;5076495;28;20175;-65
2022/12/17 17:49:28;;;;;;;33.20;15.27;;;;;;;18.24;42.14;101351.88;5059719;28;20421;-65
2022/12/17 17:51:53;;;;;;;33.00;15.63;;;;;;;18.24;41.78;101354.72;5068038;28;20239;-65
2022/12/17 17:54:18;;;;;;;27.27;14.77;;;;;;;18.24;42.31;101359.59;5078946;28;20645;-65
2022/12/17 17:56:44;;;;;;;34.73;14.90;;;;;;;18.28;42.29;101360.56;5059215;28;20187;-65
2022/12/17 17:59:11;;;;;;;37.60;15.20;;;;;;;18.23;42.39;101370.22;5076483;28;20990;-65
2022/12/17 18:01:42;;;;;;;28.50;14.63;;;;;;;18.22;42.17;101374.25;5059724;28;20195;-65
2022/12/17 18:04:09;;;;;;;24.57;14.47;;;;;;;18.23;42.43;101367.38;5050124;28;20477;-65
2022/12/17 18:06:36;;;;;;;24.40;14.13;;;;;;;18.17;42.74;101371.59;5056593;28;20513;-65
2022/12/17 18:09:01;;;;;;;26.63;14.73;;;;;;;18.16;42.82;101380.56;5023023;28;20844;-65
2022/12/17 18:11:28;;;;;;;30.67;14.13;;;;;;;18.20;42.64;101378.63;5054486;28;20449;-65
2022/12/17 18:13:56;;;;;;;26.63;14.33;;;;;;;18.21;42.76;101384.00;5044107;28;20193;-65
2022/12/17 18:16:22;;;;;;;23.13;13.90;;;;;;;18.22;42.75;101390.56;5054064;28;20427;-65
2022/12/17 18:18:48;;;;;;;28.70;13.90;;;;;;;18.19;43.01;101392.13;5059351;28;20454;-65
2022/12/17 18:21:16;;;;;;;28.30;12.93;;;;;;;18.27;42.97;101410.38;5041878;28;20430;-65
2022/12/17 18:23:42;;;;;;;26.00;12.93;;;;;;;18.25;42.83;101422.16;5043563;28;20194;-65
2022/12/17 18:26:12;;;;;;;26.30;13.53;;;;;;;18.26;42.63;101418.09;5031097;28;20421;-65
2022/12/17 18:28:38;;;;;;;31.40;13.80;;;;;;;18.28;42.66;101417.75;5079286;28;20165;-65
2022/12/17 18:31:08;;;;;;;20.97;12.87;;;;;;;18.27;43.14;101413.22;5043558;28;20457;-65
2022/12/17 18:33:34;;;;;;;25.80;13.20;;;;;;;18.22;42.87;101410.59;5061540;28;20402;-65
2022/12/17 18:36:00;;;;;;;21.37;12.97;;;;;;;18.26;42.91;101417.28;5042275;28;20862;-65
2022/12/17 18:38:25;;;;;;;27.00;13.03;;;;;;;18.26;43.15;101435.25;5059951;28;20463;-65
2022/12/17 18:40:51;;;;;;;22.70;13.77;;;;;;;18.22;42.92;101419.97;5042810;28;20176;-65
2022/12/17 18:43:22;;;;;;;22.10;12.00;;;;;;;18.17;43.23;101431.63;5063545;28;20186;-65
2022/12/17 18:45:51;;;;;;;25.10;13.57;;;;;;;18.19;43.28;101423.56;5080940;28;20175;-65
2022/12/17 18:48:17;;;;;;;21.50;12.50;;;;;;;18.20;43.20;101422.38;5053761;28;20426;-65
2022/12/17 18:50:42;;;;;;;20.03;11.90;;;;;;;18.27;43.14;101418.94;5059503;28;20430;-66
2022/12/17 18:53:08;;;;;;;21.90;11.90;;;;;;;18.19;43.46;101419.84;5059603;28;20461;-66
2022/12/17 18:55:39;;;;;;;24.47;11.43;;;;;;;18.22;43.05;101427.72;5062375;28;20188;-66
2022/12/17 18:58:05;;;;;;;22.20;12.03;;;;;;;18.23;43.21;101424.53;5042673;28;20167;-66
2022/12/17 19:00:30;;;;;;;25.77;11.43;;;;;;;18.33;43.21;101432.69;5062381;28;20473;-66
2022/12/17 19:02:56;;;;;;;21.63;12.50;;;;;;;18.25;43.35;101432.72;5061150;28;20434;-66
2022/12/17 19:05:21;;;;;;;21.37;12.27;;;;;;;18.24;43.49;101437.63;5077162;28;20199;-66
2022/12/17 19:07:47;;;;;;;23.97;12.50;;;;;;;18.20;43.18;101436.66;5078284;28;20205;-66
2022/12/17 19:10:12;;;;;;;20.67;12.03;;;;;;;18.20;43.57;101435.81;5080034;28;20174;-66
2022/12/17 19:12:38;;;;;;;22.23;11.80;;;;;;;18.28;43.53;101437.75;5070106;28;20196;-66
2022/12/17 19:15:03;;;;;;;20.03;11.93;;;;;;;18.25;43.79;101438.44;5068574;28;20194;-66
2022/12/17 19:17:29;;;;;;;19.77;11.77;;;;;;;18.28;43.24;101443.47;5078965;28;20730;-66
2022/12/17 19:19:54;;;;;;;19.30;11.87;;;;;;;18.22;43.58;101436.31;5084332;28;20179;-66
2022/12/17 19:22:19;;;;;;;19.47;11.03;;;;;;;18.18;43.68;101441.91;5058805;28;20202;-66
2022/12/17 19:24:45;;;;;;;18.17;11.30;;;;;;;18.22;43.73;101439.16;5062041;28;20171;-66
2022/12/17 19:27:10;;;;;;;19.63;11.43;;;;;;;18.17;43.71;101433.66;5074825;28;20164;-66
2022/12/17 19:29:36;;;;;;;20.30;12.07;;;;;;;18.19;43.54;101429.28;5061049;28;20171;-66
2022/12/17 19:32:01;;;;;;;17.90;11.50;;;;;;;18.18;43.71;101436.19;5059768;28;20176;-66
2022/12/17 19:34:27;;;;;;;19.40;11.07;;;;;;;18.19;43.60;101420.69;5063046;28;20174;-66
2022/12/17 19:36:52;;;;;;;19.90;10.97;;;;;;;18.19;43.55;101440.72;5068942;28;20186;-66
2022/12/17 19:39:18;;;;;;;24.67;10.67;;;;;;;18.19;43.58;101432.13;5040525;28;20195;-66
2022/12/17 19:41:43;;;;;;;22.07;12.10;;;;;;;18.22;43.74;101445.69;5041221;28;20183;-66
2022/12/17 19:44:14;;;;;;;21.17;11.70;;;;;;;18.16;43.59;101443.44;5060317;28;20171;-66
2022/12/17 19:46:40;;;;;;;19.03;10.67;;;;;;;18.15;43.84;101436.03;5059663;28;20178;-66
2022/12/17 19:49:06;;;;;;;20.33;10.90;;;;;;;18.15;43.86;101436.88;5047124;28;20434;-66
2022/12/17 19:51:31;;;;;;;17.87;10.30;;;;;;;18.23;43.70;101444.53;5036580;28;20224;-66
2022/12/17 19:53:57;;;;;;;18.07;11.10;;;;;;;18.18;43.74;101436.19;5032328;28;20474;-66
2022/12/17 19:56:26;;;;;;;22.30;10.53;;;;;;;18.17;43.83;101437.34;5009058;28;20173;-66
2022/12/17 19:58:53;;;;;;;17.00;11.17;;;;;;;18.20;43.99;101432.94;5038693;28;20203;-66
2022/12/17 20:01:21;;;;;;;15.73;10.07;;;;;;;18.13;43.84;101430.69;5004721;28;20936;-66
2022/12/17 20:03:46;;;;;;;16.97;10.23;;;;;;;18.16;44.18;101421.38;5021025;28;20962;-66
2022/12/17 20:06:13;;;;;;;20.80;11.50;;;;;;;18.20;44.08;101433.78;5032408;28;20459;-66
2022/12/17 20:08:38;;;;;;;17.73;10.30;;;;;;;18.19;43.99;101425.56;5019101;28;20263;-66
2022/12/17 20:11:31;;;;;;;17.03;10.17;;;;;;;18.20;43.78;101419.50;5020509;28;20447;-66
2022/12/17 20:14:12;;;;;;;17.10;10.50;;;;;;;18.19;44.21;101435.00;5020920;28;20197;-66
2022/12/17 20:16:43;;;;;;;15.93;9.90;;;;;;;18.21;43.83;101441.19;5021073;28;20407;-66
2022/12/17 20:19:12;;;;;;;19.77;10.03;;;;;;;18.19;43.73;101451.28;5032606;28;20493;-65
2022/12/17 20:21:38;;;;;;;16.87;11.17;;;;;;;18.28;43.58;101449.19;5042041;28;20899;-65
2022/12/17 20:24:03;;;;;;;17.83;10.50;;;;;;;18.21;43.83;101455.47;5041255;28;20433;-65
2022/12/17 20:26:29;;;;;;;17.83;10.20;;;;;;;18.18;44.08;101447.63;5041611;28;20165;-65
2022/12/17 20:28:55;;;;;;;15.27;10.40;;;;;;;18.19;44.00;101440.72;5038035;28;20185;-65
2022/12/17 20:31:20;;;;;;;18.90;11.00;;;;;;;18.20;44.20;101450.94;5025511;28;20165;-65
2022/12/17 20:33:45;;;;;;;15.33;10.53;;;;;;;18.16;44.15;101447.13;5030635;28;20185;-65
2022/12/17 20:36:13;;;;;;;14.93;10.27;;;;;;;18.18;44.30;101439.03;5021972;28;20165;-65
2022/12/17 20:38:39;;;;;;;16.80;10.80;;;;;;;18.22;43.98;101437.13;5024251;28;20301;-65
2022/12/17 20:41:10;;;;;;;14.17;9.57;;;;;;;18.20;44.06;101436.66;5030647;28;20438;-65
2022/12/17 20:43:36;;;;;;;17.87;9.87;;;;;;;18.17;44.28;101433.66;5039661;28;20176;-65
2022/12/17 20:46:01;;;;;;;15.07;9.80;;;;;;;18.16;44.11;101441.41;5028479;28;20471;-65
2022/12/17 20:48:27;;;;;;;16.50;9.50;;;;;;;18.21;43.99;101435.47;5004250;28;20181;-65
2022/12/17 20:50:53;;;;;;;16.63;9.87;;;;;;;18.23;44.03;101441.69;5023589;28;20192;-65
2022/12/17 20:53:18;;;;;;;13.77;8.90;;;;;;;18.19;44.17;101435.00;5078181;28;20231;-65
2022/12/17 20:55:44;;;;;;;16.53;10.67;;;;;;;18.20;44.37;101433.78;5063660;28;20544;-65
2022/12/17 20:58:10;;;;;;;15.80;10.60;;;;;;;18.18;44.24;101430.47;5048607;28;20195;-65
2022/12/17 21:00:36;;;;;;;15.80;9.47;;;;;;;18.14;44.34;101435.22;5043994;28;20195;-66
2022/12/17 21:03:01;;;;;;;13.27;8.67;;;;;;;18.19;44.56;101435.00;5043673;28;20786;-66
2022/12/17 21:05:26;;;;;;;16.47;9.73;;;;;;;18.23;44.40;101437.97;5079902;28;20191;-66
2022/12/17 21:07:52;;;;;;;14.93;9.90;;;;;;;18.15;44.54;101447.47;5067090;28;20179;-66
2022/12/17 21:10:18;;;;;;;15.77;9.60;;;;;;;18.21;44.36;101446.06;5044857;28;20191;-65
2022/12/17 21:15:35;;;;;;;14.47;9.70;;;;;;;18.11;44.74;101457.94;5050730;28;20194;-65
2022/12/17 21:18:00;;;;;;;16.03;10.83;;;;;;;18.17;44.50;101462.25;5082690;28;20417;-65
2022/12/17 21:20:26;;;;;;;15.90;10.07;;;;;;;18.12;44.63;101460.44;5062125;28;20666;-65
2022/12/17 21:22:51;;;;;;;14.80;9.63;;;;;;;18.14;44.33;101460.94;5074362;28;20182;-65
2022/12/17 21:25:16;;;;;;;15.07;9.70;;;;;;;18.17;44.61;101454.50;5066419;28;20705;-65
2022/12/17 21:27:43;;;;;;;16.03;10.40;;;;;;;18.19;44.36;101457.00;5079535;28;20165;-65
2022/12/17 21:30:09;;;;;;;17.70;10.70;;;;;;;18.14;44.45;101460.09;5062966;28;20214;-65
2022/12/17 21:32:34;;;;;;;16.00;9.53;;;;;;;18.12;44.53;101457.56;5080943;28;20453;-65
2022/12/17 21:35:00;;;;;;;14.47;8.70;;;;;;;18.22;44.30;101447.75;5077412;28;20186;-65
2022/12/17 21:37:25;;;;;;;15.10;9.90;;;;;;;18.20;44.50;101439.50;5062637;28;20186;-65
2022/12/17 21:39:51;;;;;;;16.20;9.47;;;;;;;18.14;44.47;101440.06;5056282;28;20622;-65
2022/12/17 21:45:00;;;;;;;16.03;9.80;;;;;;;18.21;44.30;101458.31;5061644;28;20175;-65
2022/12/17 21:47:25;;;;;;;11.80;8.20;;;;;;;18.17;44.65;101445.91;5060816;28;20433;-65
2022/12/17 21:49:51;;;;;;;14.97;10.20;;;;;;;18.20;44.66;101455.81;5041104;28;20199;-65
2022/12/17 21:52:16;;;;;;;14.27;9.47;;;;;;;18.20;44.41;101456.66;5058433;28;20207;-65
2022/12/17 21:54:42;;;;;;;13.97;9.03;;;;;;;18.21;44.60;101463.22;5039123;28;20179;-65
2022/12/17 21:57:07;;;;;;;12.67;9.23;;;;;;;18.24;44.31;101463.34;5039212;28;20171;-65
2022/12/17 21:59:33;;;;;;;14.43;9.47;;;;;;;18.24;44.41;101457.63;5057436;28;20191;-65
2022/12/17 22:01:58;;;;;;;13.00;8.43;;;;;;;18.18;44.57;101476.19;5042489;28;20657;-65
2022/12/17 22:04:24;;;;;;;11.80;7.87;;;;;;;18.19;44.51;101469.28;5070543;28;20692;-65
2022/12/17 22:06:49;;;;;;;14.10;8.60;;;;;;;18.20;44.79;101475.81;5039696;28;20172;-65
2022/12/17 22:09:15;;;;;;;16.03;8.37;;;;;;;18.16;44.48;101469.97;5076348;28;20167;-65
2022/12/17 22:11:40;;;;;;;12.70;8.40;;;;;;;18.19;45.01;101471.28;5077415;28;20190;-66
2022/12/17 22:14:08;;;;;;;14.00;8.70;;;;;;;18.15;44.93;101468.31;5077464;28;20178;-66
2022/12/17 22:16:45;;;;;;;13.47;9.33;;;;;;;18.14;44.91;101466.66;5055944;28;20179;-66
2022/12/17 22:19:18;;;;;;;15.40;9.27;;;;;;;18.15;44.63;101476.03;5043203;28;20460;-66
2022/12/17 22:21:44;;;;;;;15.60;9.37;;;;;;;18.17;44.53;101467.97;5075035;28;20434;-66
2022/12/17 22:24:13;;;;;;;12.27;8.40;;;;;;;18.18;44.75;101481.91;5039111;28;20651;-66
2022/12/17 22:26:39;;;;;;;13.80;9.53;;;;;;;18.15;44.69;101471.16;5023219;28;20160;-66
2022/12/17 22:29:04;;;;;;;13.20;8.60;;;;;;;18.10;44.56;101484.81;5053210;28;20429;-66
2022/12/17 22:34:14;;;;;;;13.70;8.90;;;;;;;18.17;45.36;101488.78;5076737;28;20181;-66
2022/12/17 22:36:39;;;;;;;12.50;8.70;;;;;;;18.19;44.66;101477.88;5077026;28;20493;-66
2022/12/17 22:39:10;;;;;;;11.57;8.30;;;;;;;18.13;44.97;101487.00;5056211;28;20184;-66
2022/12/17 22:44:20;;;;;;;14.67;8.80;;;;;;;18.18;44.51;101481.06;5043082;28;20445;-65
2022/12/17 22:46:46;;;;;;;11.83;9.07;;;;;;;18.17;44.43;101483.06;5039127;28;20482;-65
2022/12/17 22:49:11;;;;;;;12.73;8.13;;;;;;;18.18;44.73;101476.19;5039145;28;20172;-64
2022/12/17 22:51:37;;;;;;;11.13;7.70;;;;;;;18.15;44.75;101479.75;5000294;28;1153004;-64
2022/12/17 22:54:08;;;;;;;13.60;8.70;;;;;;;18.18;45.01;101486.78;5075161;28;20591;-64
2022/12/17 22:56:37;;;;;;;12.10;8.50;;;;;;;18.18;44.59;101490.50;5076306;28;20219;-64
2022/12/17 22:59:03;;;;;;;12.87;8.87;;;;;;;18.20;44.85;101488.09;5062173;28;20469;-64
2022/12/17 23:01:28;;;;;;;13.77;8.70;;;;;;;18.18;44.58;101473.34;5008033;28;20457;-64
2022/12/17 23:03:55;;;;;;;16.03;8.27;;;;;;;18.18;44.92;101475.34;5065710;28;20207;-64
2022/12/17 23:06:20;;;;;;;12.20;8.30;;;;;;;18.17;44.83;101465.09;5059074;28;20171;-64
2022/12/17 23:08:46;;;;;;;13.30;8.87;;;;;;;18.18;44.63;101475.34;5059019;28;20871;-64
2022/12/17 23:11:17;;;;;;;12.10;8.10;;;;;;;18.17;44.78;101474.50;5063020;28;20242;-64
2022/12/17 23:13:42;;;;;;;13.90;9.27;;;;;;;18.18;44.70;101473.34;5037931;28;20221;-64
2022/12/17 23:16:09;;;;;;;12.13;8.80;;;;;;;18.18;44.78;101479.06;5058839;28;20434;-64
2022/12/17 23:18:34;;;;;;;12.20;8.10;;;;;;;18.15;44.88;101468.31;5055675;28;20249;-64
2022/12/17 23:21:10;;;;;;;12.00;8.40;;;;;;;18.18;44.59;101470.47;5059446;28;20415;-64
2022/12/17 23:23:36;;;;;;;12.50;8.70;;;;;;;18.20;44.66;101487.25;5060688;28;20179;-64
2022/12/17 23:26:14;;;;;;;12.23;8.67;;;;;;;18.20;44.91;101493.81;5036497;28;20504;-64
2022/12/17 23:28:40;;;;;;;13.90;8.60;;;;;;;18.21;44.59;101498.34;5058828;28;20171;-64
2022/12/17 23:31:09;;;;;;;13.63;8.83;;;;;;;18.14;44.70;101503.81;5064005;28;20449;-64
2022/12/17 23:33:35;;;;;;;13.50;8.73;;;;;;;18.21;45.04;101504.06;5038013;28;20175;-64
2022/12/17 23:36:05;;;;;;;13.37;8.50;;;;;;;18.09;45.20;101503.16;5040830;28;20468;-64
2022/12/17 23:38:32;;;;;;;12.23;8.23;;;;;;;18.14;45.19;101498.09;5056837;28;20176;-64
2022/12/17 23:41:09;;;;;;;12.00;7.77;;;;;;;18.14;45.13;101485.81;5055691;28;20402;-64
2022/12/17 23:43:34;;;;;;;12.07;8.20;;;;;;;18.14;44.82;101485.81;5060392;28;20429;-64
2022/12/17 23:46:00;;;;;;;13.40;8.77;;;;;;;18.17;44.71;101482.25;5054450;28;20445;-64
2022/12/17 23:48:46;;;;;;;13.70;8.50;;;;;;;18.12;45.12;101491.03;5037042;28;20183;-64
2022/12/17 23:51:13;;;;;;;12.43;8.60;;;;;;;18.17;44.82;101496.53;5054921;28;20414;-64
2022/12/17 23:53:38;;;;;;;11.87;7.93;;;;;;;18.13;45.04;101495.56;5074580;28;20809;-64
2022/12/17 23:56:08;;;;;;;12.43;8.30;;;;;;;18.12;45.24;101496.75;5042351;28;20492;-64
2022/12/17 23:58:35;;;;;;;14.50;8.70;;;;;;;18.12;45.14;101491.88;5058795;28;20273;-64
